Latest Coastal Weather Observations for Lake Macquarie - Cooranbong

IDN60701

Issued at 8:22 pm EST Monday 22 April 2024 (issued every 10 minutes, with the page automatically refreshed every 10 minutes)

About coastal observations | Map of coastal stations | Coastal observations for NSW | Marine services | Other Formats
Station Details ID: 061412 Name: LAKE MACQUARIE AWS Lat: -33.09 Lon: 151.46 Height: 6.0 m
Data from the previous 72 hours. | See also: Recent months at Lake Macquarie - Cooranbong
Date/Time
EST
Wind Sea
Height
m
Swell Vis
km
Cloud Weather Temp
°C
Press
MSL
hPa
Rain since
9am
mm
Dir  Spd
kts
Gust
kts
Height
m
Period
s
Dir
22/08:00pm CALM 0 0 - - - - - - - 14.9 1026.8 0.0
22/07:30pm CALM 0 0 - - - - - - - 15.3 1026.6 0.0
22/07:00pm CALM 0 0 - - - - - - - 15.8 1026.5 0.0
22/06:30pm CALM 0 0 - - - - - - - 16.2 1026.3 0.0
22/06:00pm CALM 0 0 - - - - - - - 17.2 1026.0 0.0
22/05:30pm CALM 0 0 - - - - - - - 18.7 1025.9 0.0
22/05:00pm SSE 1 4 - - - - - - - 20.4 1025.9 0.0
22/04:30pm SE 3 6 - - - - - - - 21.3 1025.9 0.0
22/04:00pm ESE 3 4 - - - - - - - 22.1 1026.0 0.0
22/03:30pm ESE 4 7 - - - - - - - 22.6 1026.1 0.0
22/03:00pm ESE 4 7 - - - - - - - 22.8 1026.3 0.0
22/02:30pm E 3 5 - - - - - - - 21.6 1026.4 0.0
22/02:00pm ESE 4 6 - - - - - - - 22.6 1026.3 0.0
22/01:30pm ESE 4 7 - - - - - - - 22.9 1026.4 0.0
22/01:00pm SE 1 5 - - - - - - - 23.1 1026.6 0.0
22/12:30pm ENE 4 8 - - - - - - - 23.3 1027.0 0.0
22/12:00pm S 1 3 - - - - - - - 22.4 1027.7 0.0
22/11:30am SE 3 5 - - - - - - - 22.4 1028.0 0.0
22/11:00am SSE 3 5 - - - - - - - 21.7 1028.2 0.0
22/10:30am WSW 2 6 - - - - - - - 22.0 1028.5 0.0
22/10:00am SW 3 7 - - - - - - - 21.2 1028.7 0.0
22/09:30am SW 3 5 - - - - - - - 20.1 1028.7 0.0
22/09:00am SSW 3 5 - - - - - - - 19.6 1028.8 32.6
22/08:30am SSW 2 5 - - - - - - - 18.9 1029.1 32.6
22/08:00am SSW 2 4 - - - - - - - 17.3 1029.0 32.6
22/07:30am SW 1 3 - - - - - - - 16.0 1028.8 32.6
22/07:00am SW 1 3 - - - - - - - 13.9 1028.7 32.6
22/06:30am CALM 0 0 - - - - - - - 13.4 1028.4 32.6
22/06:00am CALM 0 0 - - - - - - - 13.7 1028.3 32.6
22/05:30am CALM 0 0 - - - - - - - 13.0 1028.1 32.6
22/05:00am CALM 0 0 - - - - - - - 13.2 1027.9 32.6
22/04:30am CALM 0 0 - - - - - - - 13.0 1027.7 32.6
22/04:00am CALM 0 0 - - - - - - - 13.3 1027.4 32.6
22/03:30am CALM 0 0 - - - - - - - 13.7 1027.1 32.6
22/03:00am CALM 0 0 - - - - - - Recent precip. 13.6 1027.2 32.4
22/02:30am CALM 0 0 - - - - - - - 13.7 1027.5 32.4
22/02:00am CALM 0 0 - - - - - - - 13.9 1027.7 32.2
22/01:30am CALM 0 0 - - - - - - - 14.3 1028.0 31.8
22/01:00am CALM 0 0 - - - - - - - 14.9 1028.2 31.6
22/12:30am CALM 0 0 - - - - - - - 14.9 1028.1 31.2
22/12:00am CALM 0 0 - - - - - - Rain 14.8 1028.1 30.6
 
Date/Time
EST
Wind Sea
Height
m
Swell Vis
km
Cloud Weather Temp
°C
Press
MSL
hPa
Rain since
9am
mm
Dir  Spd
kts
Gust
kts
Height
m
Period
s
Dir
21/11:30pm CALM 0 0 - - - - - - - 14.9 1028.2 30.2
21/11:00pm CALM 0 0 - - - - - - - 15.2 1028.3 29.6
21/10:30pm CALM 0 0 - - - - - - - 15.4 1028.6 29.0
21/10:00pm CALM 0 0 - - - - - - - 15.2 1028.6 28.4
21/09:30pm CALM 0 0 - - - - - - - 15.7 1028.6 27.8
21/09:00pm CALM 0 0 - - - - - - Rain 16.4 1028.4 27.0
21/08:30pm CALM 0 0 - - - - - - - 16.7 1028.4 26.4
21/08:00pm WSW 1 3 - - - - - - - 16.4 1028.1 25.6
21/07:30pm SW 1 2 - - - - - - - 16.6 1028.0 25.0
21/07:00pm CALM 0 2 - - - - - - - 17.0 1027.8 24.2
21/06:30pm SW 1 3 - - - - - - - 17.7 1027.5 23.4
21/06:00pm SSW 1 4 - - - - - - Rain 18.2 1027.2 22.4
21/05:30pm CALM 0 2 - - - - - - - 18.6 1026.9 21.6
21/05:00pm S 1 3 - - - - - - - 19.4 1026.8 20.6
21/04:30pm SSE 4 7 - - - - - - - 20.1 1026.7 19.4
21/04:00pm SSW 3 6 - - - - - - - 20.4 1026.5 18.4
21/03:30pm S 3 6 - - - - - - - 19.9 1026.4 17.4
21/03:00pm SSW 3 8 - - - - - - Rain 21.1 1026.6 16.2
21/02:30pm SSE 4 9 - - - - - - - 21.2 1026.6 15.0
21/02:00pm S 4 10 - - - - - - - 21.0 1026.5 13.6
21/01:30pm SSW 4 9 - - - - - - - 20.9 1026.5 12.2
21/01:00pm SW 4 9 - - - - - - - 21.4 1026.7 11.0
21/12:30pm S 5 9 - - - - - - - 21.6 1027.1 9.4
21/12:00pm SSW 5 8 - - - - - - Rain 20.9 1027.6 8.2
21/11:30am SSW 3 7 - - - - - - - 20.6 1027.8 6.8
21/11:00am SSW 3 6 - - - - - - - 19.6 1028.1 5.4
21/10:30am SSW 4 7 - - - - - - - 19.0 1028.3 4.0
21/10:00am SSW 4 9 - - - - - - - 18.2 1028.3 2.8
21/09:30am SSW 3 7 - - - - - - - 17.6 1028.3 1.4
21/09:00am SW 4 10 - - - - - - Rain 17.0 1028.3 53.4
21/08:30am WSW 2 5 - - - - - - - 16.4 1028.4 52.2
21/08:00am WSW 2 5 - - - - - - - 16.1 1028.3 51.0
21/07:30am WSW 3 6 - - - - - - - 15.7 1028.1 49.8
21/07:00am WSW 1 4 - - - - - - - 15.3 1027.8 48.6
21/06:30am CALM 0 1 - - - - - - - 15.1 1027.6 47.2
21/06:00am SW 1 3 - - - - - - Rain 15.0 1027.4 46.0
21/05:30am SW 2 3 - - - - - - - 15.0 1027.2 44.6
21/05:00am SSW 1 3 - - - - - - - 14.9 1026.9 43.2
21/04:30am SSW 2 4 - - - - - - - 15.0 1026.7 41.8
21/04:00am SW 4 8 - - - - - - - 15.0 1026.4 40.4
21/03:30am SW 4 6 - - - - - - - 15.1 1026.2 39.0
21/03:00am SW 3 7 - - - - - - Rain 15.2 1026.3 37.4
21/02:30am SW 2 4 - - - - - - - 15.3 1026.4 36.0
21/02:00am SW 2 5 - - - - - - - 15.2 1026.4 34.6
21/01:30am SW 2 7 - - - - - - - 15.3 1026.6 33.0
21/01:00am NNW 2 5 - - - - - - - 15.4 1026.6 31.6
21/12:30am WSW 4 9 - - - - - - - 15.6 1026.6 30.0
21/12:00am SW 1 4 - - - - - - Rain 15.5 1026.8 28.6
 
Date/Time
EST
Wind Sea
Height
m
Swell Vis
km
Cloud Weather Temp
°C
Press
MSL
hPa
Rain since
9am
mm
Dir  Spd
kts
Gust
kts
Height
m
Period
s
Dir
20/11:30pm SW 3 6 - - - - - - - 15.6 1026.6 27.2
20/11:00pm SW 2 4 - - - - - - - 15.9 1026.9 25.6
20/10:30pm SW 3 5 - - - - - - - 16.1 1026.5 24.0
20/10:00pm S 3 8 - - - - - - - 16.4 1026.6 22.6
20/09:30pm SSW 4 9 - - - - - - - 16.5 1026.5 21.0
20/09:00pm S 4 9 - - - - - - Rain 16.6 1026.4 19.4
20/08:30pm SSE 2 5 - - - - - - - 16.8 1026.4 18.0
20/08:00pm SSE 2 7 - - - - - - - 16.9 1026.0 16.2
20/07:30pm SSW 3 6 - - - - - - - 16.9 1025.7 14.4
20/07:00pm SSW 2 5 - - - - - - - 16.7 1025.4 13.0
20/06:30pm SW 2 4 - - - - - - - 16.5 1025.1 12.0
20/06:00pm SSE 3 9 - - - - - - Rain 16.7 1024.9 11.2
20/05:30pm SSW 4 10 - - - - - - - 16.8 1024.4 10.6
20/05:00pm WSW 3 7 - - - - - - - 16.7 1024.2 10.0
20/04:30pm WSW 2 4 - - - - - - - 16.2 1024.5 9.4
20/04:00pm SSW 2 5 - - - - - - - 16.4 1024.4 8.6
20/03:30pm SW 2 6 - - - - - - - 16.8 1024.3 7.8
20/03:00pm SSW 4 9 - - - - - - Rain 17.0 1024.1 7.0
20/02:30pm SW 2 6 - - - - - - - 17.7 1023.5 6.2
20/02:00pm SSW 3 6 - - - - - - - 17.6 1023.5 5.4
20/01:30pm SSW 2 5 - - - - - - - 17.5 1023.4 4.4
20/01:00pm SSW 3 10 - - - - - - - 17.6 1023.3 3.4
20/12:30pm SSW 2 6 - - - - - - - 17.3 1023.6 2.4
20/12:00pm SW 3 8 - - - - - - Recent precip. 17.1 1023.7 1.6
20/11:30am SW 3 7 - - - - - - - 16.8 1023.9 1.4
20/11:00am SSW 3 7 - - - - - - - 16.6 1024.3 1.0
20/10:30am WSW 3 8 - - - - - - - 16.7 1024.1 0.8
20/10:00am WNW 1 3 - - - - - - - 16.3 1023.7 0.6
20/09:30am W 2 4 - - - - - - - 16.2 1023.3 0.2
20/09:00am SW 2 3 - - - - - - Rain 16.4 1023.6 9.0
20/08:30am SW 2 8 - - - - - - - 16.4 1023.2 8.6
20/08:00am WSW 3 6 - - - - - - - 15.6 1023.0 8.4
20/07:30am CALM 0 0 - - - - - - - 14.9 1022.9 8.0
20/07:00am SW 1 3 - - - - - - - 14.7 1022.6 7.8
20/06:30am WSW 1 4 - - - - - - - 14.5 1022.2 7.4
20/06:00am SSW 1 2 - - - - - - Rain 14.5 1021.9 7.2
20/05:30am WSW 1 3 - - - - - - - 14.5 1021.8 6.8
20/05:00am SSW 2 6 - - - - - - - 14.5 1021.6 6.6
20/04:30am SW 2 4 - - - - - - - 14.6 1021.4 6.2
20/04:00am WSW 1 4 - - - - - - - 14.4 1021.3 6.0
20/03:30am SSW 1 3 - - - - - - - 14.6 1021.4 5.6
20/03:00am WSW 4 6 - - - - - - Recent precip. 14.7 1021.2 5.4
20/02:30am SW 1 3 - - - - - - - 14.5 1021.5 5.2
20/02:00am WSW 2 4 - - - - - - - 14.7 1021.5 5.0
20/01:30am SW 4 8 - - - - - - - 14.7 1021.4 4.8
20/01:00am S 1 3 - - - - - - - 14.7 1021.5 4.6
20/12:30am CALM 0 0 - - - - - - - 14.7 1021.5 4.6
20/12:00am CALM 0 0 - - - - - - Recent precip. 15.0 1021.4 4.4
 
Date/Time
EST
Wind Sea
Height
m
Swell Vis
km
Cloud Weather Temp
°C
Press
MSL
hPa
Rain since
9am
mm
Dir  Spd
kts
Gust
kts
Height
m
Period
s
Dir
19/11:30pm SW 1 3 - - - - - - - 15.2 1021.1 4.2
19/11:00pm CALM 0 0 - - - - - - - 15.1 1020.9 4.2
19/10:30pm CALM 0 0 - - - - - - - 15.2 1021.3 4.0
19/10:00pm CALM 0 0 - - - - - - - 15.3 1021.6 4.0
19/09:30pm CALM 0 0 - - - - - - - 15.3 1021.6 3.8
19/09:00pm CALM 0 0 - - - - - - Rain 15.4 1021.5 3.8
19/08:30pm ESE 1 2 - - - - - - - 15.5 1021.3 3.6

Other formats

Comma delimited format used in spreadsheet applications
http://www.bom.gov.au/fwo/IDN60701/IDN60701.95767.axf

JavaScript Object Notation format (JSON) in row-major order
http://www.bom.gov.au/fwo/IDN60701/IDN60701.95767.json

Data quality

Most of these data are generated automatically and are frequently updated. Quality checks on data are not normally performed. It is possible for incorrect values to appear. Refer to information at About Latest Weather Observations and please check the disclaimer before using these data.